​ ​

Форум клана ЧПУшников

Информация о пользователе

Привет, Гость! Войдите или зарегистрируйтесь.


Вы здесь » Форум клана ЧПУшников » Лазерные станки


Лазерные станки

Тем 481 страница 560 из 593

Тема Ответов Просмотров Последнее сообщение
7 509 10-03-2016 20:36:59  chirik
5 796 07-03-2016 20:32:32  Flint2015
19 1788 04-03-2016 17:27:39  Airside
4 224 29-02-2016 22:43:44  nikson
5 188 27-02-2016 08:50:26  Flint2015
486 Тестирование размера реза  Виктор Краски
9 490 26-02-2016 16:55:55  daguss
487 кривая резка  Восходник
17 512 26-02-2016 00:06:30  semerochka
80 6505 22-02-2016 20:51:36  Kinetic
17 1039 22-02-2016 12:02:26  Kinetic
5 670 14-02-2016 15:24:59  gabber
7 552 14-02-2016 12:43:54  Zippo
12 400 12-02-2016 17:15:38  Yaroslavl
2 221 12-02-2016 10:23:44  Администратор
22 922 07-02-2016 15:27:40  Imobile
6 342 28-01-2016 17:09:21  StarPOM
25 1105 26-01-2016 15:23:58  Zippo
3 253 07-01-2016 00:45:42  okruk
4 254 05-01-2016 10:25:43  markaru
499 Нужна помощь специалистов!  Мастер на все руки
30 1445 02-01-2016 20:05:38  racon75
7 228 24-12-2015 12:08:34  lexus80
22 3143 21-12-2015 14:22:31  Kuz
14 409 14-12-2015 15:59:50  YuSTas
8 348 12-12-2015 20:20:10  Shamankiller
15 710 12-12-2015 18:02:39  racon75
38 1026 08-12-2015 23:46:50  asor
35 934 08-12-2015 18:35:57  dm6
8 374 07-12-2015 21:25:28  Dimon
25 929 04-12-2015 21:36:10  Silmaril
509 Лазерный станок Kamach II 1280 AS  радион рашитович
4 248 04-12-2015 20:36:20  Airside
4 313 04-12-2015 10:56:16  Drakonstar
9 682 29-11-2015 02:45:00  Лазорез
38 850 27-11-2015 18:12:36  ЫХ-000
41 1562 27-11-2015 12:34:06  Slym
44 1944 22-11-2015 11:50:31  _king_
515 mpc6525 - завис  Dr_dober
2 275 16-11-2015 12:54:39  Dr_dober
30 2301 09-11-2015 16:17:15  bort747
1 218 07-11-2015 14:48:03  MobileMan
518 Гравивовка на iPhone  Максим1975
9 622 28-10-2015 12:02:57  Восходник
44 1480 25-10-2015 16:54:39  tok17
3 248 25-10-2015 11:20:20  Фёдор Соколов
12 668 24-10-2015 11:53:29  yri71
21 2070 21-10-2015 23:59:06  dmitrymi
10 895 20-10-2015 16:04:37  YuSTas
2 124 20-10-2015 15:35:36  Kuz
6 257 15-10-2015 09:36:29  Валерия-206
3 208 13-10-2015 11:20:10  Kuz
1 163 06-10-2015 16:34:03  coolmail
29 1194 30-09-2015 12:07:02  olejah
9 429 28-09-2015 04:25:16  BlackOx
530 Расфокусировка  Прокоп
8 329 24-09-2015 20:30:02  Прокоп
14 402 24-09-2015 20:07:38  Lord
6 273 23-09-2015 08:43:57  Airside
3 142 22-09-2015 17:06:12  PalSecam
3 185 22-09-2015 14:56:27  PalSecam
2 181 16-09-2015 22:31:09  Артем-70
35 580 04-09-2015 12:04:29  ecto
5 274 02-09-2015 16:35:06  Halkin
2 410 01-09-2015 22:56:15  Soundlab 77
539 Станок для резки  владимир1070
7 324 27-08-2015 01:47:38  tok17
3 500 05-08-2015 09:46:16  Zeech79
25 827 31-07-2015 11:57:43  Orly
5 417 19-07-2015 11:20:49  Imobile
11 381 15-07-2015 22:09:31  igorzh
5 469 04-07-2015 14:13:00  Fototek
8 2785 25-06-2015 17:57:47  Nokoone
546 Трубка Reci Z8  Zeech79
7 418 25-06-2015 17:53:05  Kuz
1 186 25-06-2015 04:34:38  ThunderLaser_Nolan
2 194 23-06-2015 17:46:06  Halkin
6 221 19-06-2015 13:27:58  Flint2015
8 1178 19-06-2015 10:30:36  shraik
24 1631 15-06-2015 12:51:19  AndreyTK
5 462 02-06-2015 13:45:22  Юрий Ф
4 651 22-05-2015 14:04:43  Neudrums
3 696 14-05-2015 20:26:36  Flint2015
4 340 10-05-2015 11:46:24  papakarlokzn
5 517 05-05-2015 18:49:36  ФокусССЗ
19 6108 04-05-2015 09:40:40  uxtbl
558 Закрыта Подскажите по резке акрила  Нюхоскоп
6 233 01-05-2015 18:13:38  mrak61ru
34 1055 29-04-2015 22:02:42  mrak61ru
3 178 28-04-2015 16:29:28  MOIS

Вы здесь » Форум клана ЧПУшников » Лазерные станки